Time;durP1;ratioP1;P1;durP2;ratioP2;P2;SDS_P1;SDS_P2;PMS_P1;PMS_P2;Temp;Humidity;BMP_temperature;BMP_pressure;BME280_temperature;BME280_humidity;BME280_pressure;Samples;Min_cycle;Max_cycle;Signal;HPM_P1;HPM_P2
2022/10/29 00:06:02;;;;;;;14.98;4.15;;;;;;;;;;21008578;28;20090;-72
2022/10/29 00:16:12;;;;;;;11.07;4.20;;;;;;;;;;21002034;28;20052;-72
2022/10/29 00:26:14;;;;;;;12.52;4.68;;;;;;;;;;21012276;28;20080;-79
2022/10/29 00:36:18;;;;;;;9.02;4.47;;;;;;;;;;21017203;28;20079;-80
2022/10/29 00:46:30;;;;;;;11.95;4.38;;;;;;;;;;21023027;28;20048;-69
2022/10/29 00:56:34;;;;;;;7.10;3.63;;;;;;;;;;21003436;28;20056;-75
2022/10/29 01:06:37;;;;;;;9.80;3.80;;;;;;;;;;21009254;28;20148;-78
2022/10/29 01:16:39;;;;;;;8.20;3.78;;;;;;;;;;21003499;28;20135;-79
2022/10/29 01:26:48;;;;;;;11.05;3.72;;;;;;;;;;21004549;28;20045;-68
2022/10/29 01:37:01;;;;;;;13.55;3.40;;;;;;;;;;21016297;28;20083;-76
2022/10/29 01:47:05;;;;;;;10.48;3.40;;;;;;;;;;21015568;28;20048;-77
2022/10/29 01:57:28;;;;;;;13.18;4.22;;;;;;;;;;21013642;28;20049;-78
2022/10/29 02:07:41;;;;;;;10.95;3.92;;;;;;;;;;21002791;28;20049;-72
2022/10/29 02:17:43;;;;;;;10.77;4.05;;;;;;;;;;21010252;28;20056;-72
2022/10/29 02:27:45;;;;;;;9.73;3.55;;;;;;;;;;21008432;28;20072;-70
2022/10/29 02:37:48;;;;;;;6.47;3.38;;;;;;;;;;21013108;28;20055;-75
2022/10/29 02:47:50;;;;;;;10.77;3.92;;;;;;;;;;21006681;28;20067;-71
2022/10/29 02:57:53;;;;;;;8.55;3.60;;;;;;;;;;21008328;28;20084;-77
2022/10/29 03:07:55;;;;;;;9.27;3.33;;;;;;;;;;21010632;28;20404;-79
2022/10/29 03:17:57;;;;;;;9.65;3.55;;;;;;;;;;21008196;28;20139;-68
2022/10/29 03:28:00;;;;;;;7.32;3.60;;;;;;;;;;21007173;28;20047;-78
2022/10/29 03:38:03;;;;;;;12.95;4.63;;;;;;;;;;21001450;28;20059;-67
2022/10/29 03:48:05;;;;;;;9.75;3.90;;;;;;;;;;21003622;28;20056;-79
2022/10/29 03:58:07;;;;;;;8.75;3.95;;;;;;;;;;21009268;28;20056;-68
2022/10/29 04:08:10;;;;;;;11.00;4.20;;;;;;;;;;21027801;28;20104;-76
2022/10/29 04:18:12;;;;;;;8.73;4.07;;;;;;;;;;21044647;28;20056;-79
2022/10/29 04:28:16;;;;;;;10.18;3.97;;;;;;;;;;21038353;28;20049;-69
2022/10/29 04:38:23;;;;;;;9.98;4.10;;;;;;;;;;21022570;28;20049;-78
2022/10/29 04:48:27;;;;;;;13.95;4.60;;;;;;;;;;20990012;28;20048;-79
2022/10/29 04:58:28;;;;;;;11.10;4.63;;;;;;;;;;20996555;28;20098;-73
2022/10/29 05:08:30;;;;;;;12.23;3.85;;;;;;;;;;21006351;28;20058;-77
2022/10/29 05:18:32;;;;;;;12.60;4.57;;;;;;;;;;21011935;28;20500;-79
2022/10/29 05:28:33;;;;;;;8.23;3.85;;;;;;;;;;21010795;28;20150;-79
2022/10/29 05:38:36;;;;;;;14.43;4.93;;;;;;;;;;21010281;28;20056;-81
2022/10/29 05:48:38;;;;;;;10.82;4.68;;;;;;;;;;21008668;28;20064;-76
2022/10/29 05:58:40;;;;;;;11.00;4.43;;;;;;;;;;21011047;28;20049;-71
2022/10/29 06:08:42;;;;;;;13.40;4.97;;;;;;;;;;21062936;28;20052;-76
2022/10/29 06:18:45;;;;;;;19.45;5.63;;;;;;;;;;21030785;28;20051;-77
2022/10/29 06:28:47;;;;;;;10.45;4.65;;;;;;;;;;21008435;28;20416;-68
2022/10/29 06:38:50;;;;;;;16.02;4.95;;;;;;;;;;21004482;28;20088;-66
2022/10/29 06:48:52;;;;;;;12.60;5.25;;;;;;;;;;21009186;28;20500;-70
2022/10/29 06:58:54;;;;;;;11.80;5.25;;;;;;;;;;21011331;28;20556;-69
2022/10/29 07:08:55;;;;;;;16.73;4.30;;;;;;;;;;21002298;28;20051;-67
2022/10/29 07:18:57;;;;;;;26.48;5.95;;;;;;;;;;21003652;28;20546;-77
2022/10/29 07:28:59;;;;;;;14.40;5.30;;;;;;;;;;21000804;28;20503;-75
2022/10/29 07:39:02;;;;;;;9.65;4.88;;;;;;;;;;21000231;28;20516;-68
2022/10/29 07:49:04;;;;;;;10.65;5.28;;;;;;;;;;20999703;28;20507;-67
2022/10/29 07:59:08;;;;;;;9.63;4.45;;;;;;;;;;21007757;28;20096;-67
2022/10/29 08:09:11;;;;;;;15.63;5.13;;;;;;;;;;20999279;28;20508;-67
2022/10/29 08:19:12;;;;;;;13.73;4.50;;;;;;;;;;20997877;28;20057;-72
2022/10/29 08:29:14;;;;;;;13.10;4.18;;;;;;;;;;20997775;28;20477;-84
2022/10/29 08:39:16;;;;;;;9.05;4.35;;;;;;;;;;21008942;28;20393;-78
2022/10/29 08:49:25;;;;;;;6.75;3.70;;;;;;;;;;21015658;28;20103;-79
2022/10/29 08:59:29;;;;;;;9.88;3.22;;;;;;;;;;21020421;28;20497;-75
2022/10/29 09:09:46;;;;;;;5.93;3.40;;;;;;;;;;21012909;28;20098;-70
2022/10/29 09:19:48;;;;;;;9.82;3.03;;;;;;;;;;21011151;28;20480;-66
2022/10/29 09:30:01;;;;;;;7.85;2.88;;;;;;;;;;21013390;28;20389;-69
2022/10/29 09:40:05;;;;;;;11.20;3.58;;;;;;;;;;21010265;28;20534;-80
2022/10/29 09:50:08;;;;;;;6.20;3.00;;;;;;;;;;21007637;28;20048;-71
2022/10/29 10:00:22;;;;;;;7.93;3.20;;;;;;;;;;21008296;28;20056;-70
2022/10/29 10:10:23;;;;;;;9.02;2.85;;;;;;;;;;21009764;28;20048;-68
2022/10/29 10:20:27;;;;;;;6.32;3.28;;;;;;;;;;21007990;28;20044;-70
2022/10/29 10:30:29;;;;;;;8.27;3.00;;;;;;;;;;20998216;28;20483;-71
2022/10/29 10:40:31;;;;;;;9.75;2.90;;;;;;;;;;21005570;28;20059;-74
2022/10/29 10:50:34;;;;;;;9.68;2.92;;;;;;;;;;21003792;28;20059;-85
2022/10/29 11:00:39;;;;;;;9.63;3.17;;;;;;;;;;21002313;28;20052;-67
2022/10/29 11:10:44;;;;;;;9.00;2.88;;;;;;;;;;21009181;28;20070;-77
2022/10/29 11:21:09;;;;;;;8.93;3.17;;;;;;;;;;21002589;28;20201;-72
2022/10/29 11:31:25;;;;;;;12.15;3.03;;;;;;;;;;20666541;28;20043;-71
2022/10/29 11:41:45;;;;;;;11.02;3.97;;;;;;;;;;20669401;28;20062;-68
2022/10/29 11:51:50;;;;;;;10.43;3.40;;;;;;;;;;20661447;28;20161;-68
2022/10/29 12:01:58;;;;;;;7.50;3.42;;;;;;;;;;20746705;28;20052;-66
2022/10/29 12:12:08;;;;;;;10.27;3.08;;;;;;;;;;20997532;28;20378;-68
2022/10/29 12:22:15;;;;;;;8.10;3.35;;;;;;;;;;20998534;28;20052;-73
2022/10/29 12:32:17;;;;;;;11.15;3.20;;;;;;;;;;20996537;28;20045;-72
2022/10/29 12:42:23;;;;;;;8.15;3.33;;;;;;;;;;20996410;28;20057;-67
2022/10/29 12:52:39;;;;;;;10.10;3.25;;;;;;;;;;20995850;28;20045;-73
2022/10/29 13:02:45;;;;;;;8.43;3.17;;;;;;;;;;20994862;28;20483;-72
2022/10/29 13:12:53;;;;;;;9.80;3.50;;;;;;;;;;20997032;28;20057;-82
2022/10/29 13:22:56;;;;;;;7.03;3.17;;;;;;;;;;21026648;28;20143;-68
2022/10/29 13:32:58;;;;;;;8.25;2.80;;;;;;;;;;21070628;28;20087;-68
2022/10/29 13:43:01;;;;;;;9.82;3.42;;;;;;;;;;21073150;28;20056;-72
2022/10/29 13:53:05;;;;;;;6.10;3.97;;;;;;;;;;21064968;28;20070;-71
2022/10/29 14:03:08;;;;;;;9.18;3.42;;;;;;;;;;21054559;28;20045;-68
2022/10/29 14:13:10;;;;;;;9.20;3.10;;;;;;;;;;21016319;28;20044;-74
2022/10/29 14:23:14;;;;;;;11.38;3.50;;;;;;;;;;21016462;28;20057;-76
2022/10/29 14:33:17;;;;;;;8.93;3.55;;;;;;;;;;21015202;28;20547;-72
2022/10/29 14:43:24;;;;;;;7.28;3.38;;;;;;;;;;21022657;28;20785;-76
2022/10/29 14:53:31;;;;;;;9.55;3.78;;;;;;;;;;21033991;28;20048;-66
2022/10/29 15:03:34;;;;;;;7.88;3.75;;;;;;;;;;21041288;28;20135;-70
2022/10/29 15:13:36;;;;;;;11.35;3.40;;;;;;;;;;21035153;28;20049;-72
2022/10/29 15:23:43;;;;;;;9.95;3.47;;;;;;;;;;21016332;28;20040;-69
2022/10/29 15:33:45;;;;;;;9.88;4.05;;;;;;;;;;21008025;28;20052;-76
2022/10/29 15:43:51;;;;;;;10.27;3.70;;;;;;;;;;21001956;28;20075;-82
2022/10/29 15:53:55;;;;;;;6.85;3.05;;;;;;;;;;21002491;28;20074;-79
2022/10/29 16:03:57;;;;;;;10.85;3.85;;;;;;;;;;21032132;28;20092;-79
2022/10/29 16:13:59;;;;;;;12.73;3.72;;;;;;;;;;21009234;28;20496;-82
2022/10/29 16:24:01;;;;;;;9.15;4.38;;;;;;;;;;20999845;28;20472;-74
2022/10/29 16:34:05;;;;;;;12.00;3.30;;;;;;;;;;20996155;28;20056;-77
2022/10/29 16:44:07;;;;;;;9.27;3.05;;;;;;;;;;20995489;28;20088;-73
2022/10/29 16:54:09;;;;;;;8.07;4.25;;;;;;;;;;20977279;28;20095;-75
2022/10/29 17:04:11;;;;;;;6.97;3.28;;;;;;;;;;20986067;28;20084;-73
2022/10/29 17:14:16;;;;;;;8.13;3.92;;;;;;;;;;21011459;28;20049;-74
2022/10/29 17:24:18;;;;;;;8.48;3.65;;;;;;;;;;20992180;28;20049;-72
2022/10/29 17:34:20;;;;;;;7.80;3.63;;;;;;;;;;21009442;28;20052;-75
2022/10/29 17:44:25;;;;;;;9.15;3.63;;;;;;;;;;21008649;28;20094;-76
2022/10/29 17:54:27;;;;;;;9.90;3.50;;;;;;;;;;21009098;28;20106;-76
2022/10/29 18:04:29;;;;;;;9.68;3.45;;;;;;;;;;21008312;28;20493;-76
2022/10/29 18:14:32;;;;;;;6.07;4.13;;;;;;;;;;21005820;28;20067;-73
2022/10/29 18:24:34;;;;;;;10.00;4.32;;;;;;;;;;21005678;28;20058;-72
2022/10/29 18:34:37;;;;;;;12.20;4.97;;;;;;;;;;21004925;28;20053;-75
2022/10/29 18:44:38;;;;;;;9.18;4.13;;;;;;;;;;21003905;28;20053;-73
2022/10/29 18:54:40;;;;;;;9.95;4.40;;;;;;;;;;21002970;28;20045;-73
2022/10/29 19:04:42;;;;;;;9.98;4.63;;;;;;;;;;21002059;28;20056;-76
2022/10/29 19:14:44;;;;;;;12.93;5.45;;;;;;;;;;21001800;28;20049;-71
2022/10/29 19:24:47;;;;;;;8.57;5.35;;;;;;;;;;21000608;28;20417;-70
2022/10/29 19:34:49;;;;;;;12.23;4.28;;;;;;;;;;21007231;28;20499;-72
2022/10/29 19:44:50;;;;;;;9.70;4.72;;;;;;;;;;21020320;28;20083;-75
2022/10/29 19:54:52;;;;;;;10.40;4.28;;;;;;;;;;21000516;28;20049;-75
2022/10/29 20:04:54;;;;;;;11.65;5.72;;;;;;;;;;20998845;28;20404;-77
2022/10/29 20:14:56;;;;;;;12.90;6.07;;;;;;;;;;20998785;28;20090;-72
2022/10/29 20:24:59;;;;;;;17.88;6.75;;;;;;;;;;20999596;28;20060;-76
2022/10/29 20:35:03;;;;;;;17.42;8.88;;;;;;;;;;21008933;28;20048;-77
2022/10/29 20:45:07;;;;;;;17.08;6.60;;;;;;;;;;20995822;28;20144;-76
2022/10/29 20:55:09;;;;;;;11.77;5.00;;;;;;;;;;20996059;28;20052;-77
2022/10/29 21:05:11;;;;;;;16.60;6.75;;;;;;;;;;20995749;28;20048;-75
2022/10/29 21:15:13;;;;;;;13.60;7.10;;;;;;;;;;20994705;28;20049;-72
2022/10/29 21:25:15;;;;;;;14.73;6.57;;;;;;;;;;20994964;28;20051;-73
2022/10/29 21:35:18;;;;;;;13.38;5.45;;;;;;;;;;20995441;28;20068;-74
2022/10/29 21:45:20;;;;;;;12.15;5.65;;;;;;;;;;20994653;28;20080;-75
2022/10/29 21:55:22;;;;;;;9.88;4.95;;;;;;;;;;21010132;28;20052;-76
2022/10/29 22:05:24;;;;;;;12.10;4.85;;;;;;;;;;21008215;28;20056;-76
2022/10/29 22:15:26;;;;;;;12.65;5.57;;;;;;;;;;21009367;28;20056;-73
2022/10/29 22:25:28;;;;;;;12.27;5.10;;;;;;;;;;21007487;28;20053;-74
2022/10/29 22:35:32;;;;;;;11.48;4.95;;;;;;;;;;21006128;28;20040;-72
2022/10/29 22:45:34;;;;;;;15.60;7.40;;;;;;;;;;21004707;28;20078;-72
2022/10/29 22:55:36;;;;;;;14.80;4.93;;;;;;;;;;21004110;28;20471;-74
2022/10/29 23:05:38;;;;;;;25.38;4.22;;;;;;;;;;21002891;28;20056;-73
2022/10/29 23:15:40;;;;;;;8.85;4.60;;;;;;;;;;21003289;28;20051;-72
2022/10/29 23:25:42;;;;;;;14.15;4.32;;;;;;;;;;21002259;28;20044;-72
2022/10/29 23:35:43;;;;;;;9.52;4.00;;;;;;;;;;21002482;28;20056;-75
2022/10/29 23:45:45;;;;;;;9.32;4.35;;;;;;;;;;21019104;28;20060;-73
2022/10/29 23:55:48;;;;;;;7.38;4.40;;;;;;;;;;21016587;28;20091;-74
